Impacts METAR Board
IDs:

KTME - Houston/Executive Ar, TX, US

Updated at: 1300 UTC 20 Oct 2021
Potential Impact None Slight Moderate High
Time 20/01Z 20/02Z 20/03Z 20/04Z 20/05Z 20/06Z 20/07Z 20/08Z 20/09Z 20/10Z 20/11Z 20/12Z 20/13Z
Temp73 73 72 70 68 68 68 66 64 66 66 66 66
Dewpt68 68 68 68 66 66 68 66 64 66 66 66 66
Altim30.05 30.06 30.08 30.08 30.08 30.07 30.06 30.06 30.05 30.06 30.06 30.08 30.08
VIS10 10 9 9 8 8 9 7 6 7 6 6 3
CIG-- -- -- -- -- -- -- 55 50 50 50 50 --
CoverCLRCLRCLRCLRCLRCLRCLRBKNBKNBKNBKNBKNSCT
FltCatVFRVFRVFRVFRVFRVFRVFRVFRVFRVFRVFRVFRMVFR
WX----------------BR--BRBRBR
WDir130130130130110120100001020400
WSpd9 7 6 5 5 5 3 0 0 4 3 3 0
WGst15 -- -- -- -- -- -- -- -- -- -- -- --
Raw hourly METARs
KTME 200055Z AUTO 13009G15KT 10SM CLR 23/20 A3005 RMK AO2
KTME 200155Z AUTO 13007KT 10SM CLR 23/20 A3006 RMK AO2
KTME 200255Z AUTO 13006KT 9SM CLR 22/20 A3008 RMK AO2
KTME 200355Z AUTO 13005KT 9SM CLR 21/20 A3008 RMK AO2
KTME 200455Z AUTO 11005KT 8SM CLR 20/19 A3008 RMK AO2
KTME 200555Z AUTO 12005KT 8SM CLR 20/19 A3007 RMK AO2
KTME 200655Z AUTO 10003KT 9SM CLR 20/20 A3006 RMK AO2
KTME 200755Z AUTO 00000KT 7SM BKN055 19/19 A3006 RMK AO2
KTME 200855Z AUTO 00000KT 6SM BR BKN050 18/18 A3005 RMK AO2
KTME 200955Z AUTO 01004KT 7SM BKN050 19/19 A3006 RMK AO2
KTME 201055Z AUTO 02003KT 6SM BR BKN050 19/19 A3006 RMK AO2
KTME 201155Z AUTO 04003KT 6SM BR BKN050 19/19 A3008 RMK AO2
KTME 201255Z AUTO 00000KT 3SM BR SCT055 19/19 A3008 RMK AO2